Lindside, West Virginia
Current Conditions -  °F | °C
As of 1:15 PM on Sunday 25 Jan 2015 (Local Time) from KPSK Reporting Station
Clear Clear  
Wind Chill: 44°   Ceiling: Unl
Heat Index: 47°   Visibility: 10mi
Dew Point: 33°   Wind: 6mph
Humidity: 59%   Direction: 250°WSW
Pressure: 29.81"   Gusts: NA
Location:  37.45°N, 80.67°W
Report Text: KPSK 251815Z AUTO 25005KT 10SM CLR 08/01 A2981 RMK AO2 T00810006
Loading
Personal Weather Stations






























Interactive Weather Map New forecast layout! Learn more

10-Day Weather Forecast

Advertisements
Track Severe Weather on mobile